Time;durP1;ratioP1;P1;durP2;ratioP2;P2;SDS_P1;SDS_P2;PMS_P1;PMS_P2;Temp;Humidity;BMP_temperature;BMP_pressure;BME280_temperature;BME280_humidity;BME280_pressure;Samples;Min_cycle;Max_cycle;Signal;HPM_P1;HPM_P2
2023/05/24 00:01:50;;;;;;;2.17;1.93;;;;;;;16.78;100.00;98898.38;5090613;28;20269;-71
2023/05/24 00:04:17;;;;;;;2.80;2.03;;;;;;;16.72;100.00;98896.38;5090544;28;20212;-71
2023/05/24 00:06:47;;;;;;;3.47;2.27;;;;;;;16.71;100.00;98900.75;5090541;28;20684;-77
2023/05/24 00:09:14;;;;;;;4.27;2.30;;;;;;;16.68;100.00;98898.47;5090668;28;20277;-71
2023/05/24 00:11:40;;;;;;;3.67;1.93;;;;;;;16.63;100.00;98894.75;5090849;28;20582;-77
2023/05/24 00:14:07;;;;;;;3.97;2.20;;;;;;;16.54;100.00;98901.63;5090531;28;20603;-77
2023/05/24 00:16:35;;;;;;;3.67;2.40;;;;;;;16.51;100.00;98902.75;5090260;28;20203;-76
2023/05/24 00:19:02;;;;;;;3.20;2.00;;;;;;;16.63;100.00;98898.13;5090482;28;20243;-71
2023/05/24 00:21:30;;;;;;;4.10;2.53;;;;;;;16.68;100.00;98895.09;5090588;28;20311;-77
2023/05/24 00:23:59;;;;;;;2.93;1.83;;;;;;;16.58;100.00;98896.97;5090316;28;20223;-71
2023/05/24 00:26:26;;;;;;;2.63;2.30;;;;;;;16.48;100.00;98895.31;5090538;28;20205;-77
2023/05/24 00:28:52;;;;;;;3.07;2.30;;;;;;;16.41;100.00;98896.09;5090189;28;20703;-77
2023/05/24 00:31:19;;;;;;;6.30;1.90;;;;;;;16.43;100.00;98889.78;5090143;28;20205;-77
2023/05/24 00:33:46;;;;;;;2.60;2.03;;;;;;;16.43;100.00;98892.38;5090101;28;20264;-70
2023/05/24 00:36:13;;;;;;;2.80;1.73;;;;;;;16.35;100.00;98894.09;5090361;28;20636;-77
2023/05/24 00:38:39;;;;;;;3.13;2.00;;;;;;;16.32;100.00;98892.66;5089820;28;20235;-76
2023/05/24 00:41:08;;;;;;;4.43;2.27;;;;;;;16.37;100.00;98889.59;5090088;28;20207;-76
2023/05/24 00:43:35;;;;;;;4.57;2.17;;;;;;;16.35;100.00;98896.66;5089911;28;20550;-71
2023/05/24 00:46:27;;;;;;;4.43;2.30;;;;;;;16.34;100.00;98895.88;5090287;28;20676;-71
2023/05/24 00:48:54;;;;;;;2.47;2.00;;;;;;;16.34;100.00;98895.06;5086652;28;20759;-76
2023/05/24 00:51:21;;;;;;;3.47;2.37;;;;;;;16.27;100.00;98894.88;5089936;28;20214;-71
2023/05/24 00:53:49;;;;;;;3.37;2.20;;;;;;;16.24;100.00;98895.19;5089802;28;20755;-71
2023/05/24 00:56:18;;;;;;;5.43;2.37;;;;;;;16.24;100.00;98890.03;5089979;28;20205;-71
2023/05/24 00:58:45;;;;;;;2.53;1.87;;;;;;;16.24;100.00;98890.03;5089541;28;20241;-76
2023/05/24 01:01:13;;;;;;;5.40;2.23;;;;;;;16.19;100.00;98887.88;5090103;28;20203;-77
2023/05/24 01:03:40;;;;;;;2.70;2.10;;;;;;;16.23;100.00;98883.22;5089870;28;20290;-77
2023/05/24 01:06:08;;;;;;;2.87;2.10;;;;;;;16.20;100.00;98888.69;5089205;28;20249;-71
2023/05/24 01:08:54;;;;;;;4.00;1.90;;;;;;;16.12;100.00;98892.03;5090088;28;20304;-77
2023/05/24 01:11:29;;;;;;;5.57;2.30;;;;;;;15.86;100.00;98892.00;5089864;28;20198;-76
2023/05/24 01:14:04;;;;;;;3.93;2.30;;;;;;;15.66;100.00;98890.53;5089571;28;20255;-75
2023/05/24 01:16:40;;;;;;;3.60;2.27;;;;;;;15.65;100.00;98888.88;5089843;28;20661;-77
2023/05/24 01:19:42;;;;;;;2.90;2.27;;;;;;;15.69;100.00;98895.41;5089601;28;20660;-71
2023/05/24 01:22:24;;;;;;;3.63;2.30;;;;;;;15.76;100.00;98891.28;5077919;28;20207;-77
2023/05/24 01:25:03;;;;;;;2.87;2.13;;;;;;;15.70;100.00;98887.50;5089532;28;20218;-77
2023/05/24 01:27:36;;;;;;;3.97;2.37;;;;;;;15.55;100.00;98889.78;5089565;28;20582;-70
2023/05/24 01:30:04;;;;;;;2.87;2.10;;;;;;;15.55;100.00;98888.97;5090003;28;20276;-71
2023/05/24 01:32:32;;;;;;;3.87;2.10;;;;;;;15.61;100.00;98884.03;5093161;28;20205;-77
2023/05/24 01:34:59;;;;;;;4.43;2.40;;;;;;;15.76;100.00;98883.53;5093662;28;20221;-77
2023/05/24 01:37:26;;;;;;;4.00;2.40;;;;;;;15.80;100.00;98892.59;5093570;28;20198;-71
2023/05/24 01:39:53;;;;;;;2.43;2.10;;;;;;;16.01;100.00;98892.28;5093623;28;20232;-74
2023/05/24 01:42:25;;;;;;;2.60;2.20;;;;;;;16.15;100.00;98896.09;5093163;28;20199;-77
2023/05/24 01:45:04;;;;;;;4.37;2.30;;;;;;;16.21;100.00;98895.47;5093508;28;20224;-77
2023/05/24 01:47:39;;;;;;;4.90;2.30;;;;;;;16.24;100.00;98901.13;5093202;28;20201;-77
2023/05/24 01:50:22;;;;;;;2.63;2.03;;;;;;;16.21;100.00;98905.81;5093746;28;20559;-78
2023/05/24 01:52:51;;;;;;;3.93;1.90;;;;;;;16.06;100.00;98914.06;5092817;28;20206;-70
2023/05/24 01:55:18;;;;;;;3.57;2.20;;;;;;;15.93;100.00;98913.66;5093064;28;20332;-70
2023/05/24 01:57:48;;;;;;;3.37;1.93;;;;;;;15.92;100.00;98921.53;5093060;28;20267;-77
2023/05/24 02:00:19;;;;;;;3.07;2.33;;;;;;;15.95;100.00;98927.22;5093138;28;20235;-77
2023/05/24 02:02:46;;;;;;;2.70;1.90;;;;;;;15.82;100.00;98922.44;5092796;28;20280;-76
2023/05/24 02:05:13;;;;;;;3.00;1.93;;;;;;;15.80;100.00;98918.38;5092911;28;20222;-73
2023/05/24 02:07:40;;;;;;;5.27;2.60;;;;;;;15.84;100.00;98915.34;5092827;28;20201;-77
2023/05/24 02:10:08;;;;;;;4.90;2.20;;;;;;;15.76;100.00;98910.13;5093394;28;20602;-70
2023/05/24 02:12:35;;;;;;;3.87;2.50;;;;;;;15.78;100.00;98904.81;5092612;28;20471;-71
2023/05/24 02:15:01;;;;;;;3.13;2.20;;;;;;;15.75;100.00;98905.13;5092755;28;20229;-77
2023/05/24 02:17:31;;;;;;;2.10;1.73;;;;;;;15.75;100.00;98899.97;5092593;28;20210;-71
2023/05/24 02:19:58;;;;;;;4.80;2.27;;;;;;;15.73;100.00;98904.47;5092749;28;20253;-71
2023/05/24 02:22:25;;;;;;;2.93;2.00;;;;;;;15.68;100.00;98898.94;5092635;28;20582;-76
2023/05/24 02:24:52;;;;;;;4.13;2.13;;;;;;;15.61;100.00;98901.25;5092987;28;20222;-70
2023/05/24 02:27:19;;;;;;;4.97;2.37;;;;;;;15.64;100.00;98898.38;5092374;28;20250;-77
2023/05/24 02:29:46;;;;;;;11.53;2.20;;;;;;;15.63;100.00;98900.16;5092633;28;20246;-70
2023/05/24 02:32:13;;;;;;;4.43;2.00;;;;;;;15.66;100.00;98898.25;5092454;28;20584;-70
2023/05/24 02:34:42;;;;;;;2.53;2.07;;;;;;;15.61;100.00;98893.53;5092526;28;20228;-70
2023/05/24 02:37:13;;;;;;;2.07;1.57;;;;;;;15.55;100.00;98894.13;5092181;28;20199;-70
2023/05/24 02:39:40;;;;;;;4.53;2.10;;;;;;;15.49;100.00;98890.38;5092135;28;20228;-70
2023/05/24 02:42:07;;;;;;;3.70;2.33;;;;;;;15.50;100.00;98893.75;5091074;28;20289;-70
2023/05/24 02:44:34;;;;;;;2.63;1.83;;;;;;;15.51;100.00;98893.63;5091978;28;20217;-77
2023/05/24 02:47:01;;;;;;;2.07;1.60;;;;;;;15.45;100.00;98899.34;5092230;28;20201;-70
2023/05/24 02:49:28;;;;;;;2.63;2.03;;;;;;;15.43;100.00;98895.31;5092279;28;20748;-77
2023/05/24 02:51:56;;;;;;;3.50;2.10;;;;;;;15.35;100.00;98901.19;5092029;28;20253;-70
2023/05/24 02:54:23;;;;;;;3.73;2.40;;;;;;;15.36;100.00;98900.25;5092046;28;20236;-72
2023/05/24 02:56:50;;;;;;;2.77;2.07;;;;;;;15.30;100.00;98906.78;5091994;28;20212;-77
2023/05/24 02:59:17;;;;;;;3.07;2.07;;;;;;;15.29;100.00;98905.13;5091890;28;20326;-77
2023/05/24 03:01:44;;;;;;;3.63;2.47;;;;;;;15.24;100.00;98907.38;5091889;28;20300;-77
2023/05/24 03:04:11;;;;;;;3.77;2.10;;;;;;;15.25;100.00;98898.66;5091706;28;20222;-77
2023/05/24 03:06:37;;;;;;;5.43;2.50;;;;;;;15.32;100.00;98904.03;5092013;28;20280;-70
2023/05/24 03:09:06;;;;;;;6.20;2.97;;;;;;;15.36;100.00;98902.81;5092094;28;20218;-77
2023/05/24 03:11:32;;;;;;;4.73;2.53;;;;;;;15.34;100.00;98902.13;5091546;28;20198;-70
2023/05/24 03:13:59;;;;;;;7.93;3.10;;;;;;;15.37;100.00;98912.16;5091416;28;20600;-70
2023/05/24 03:16:26;;;;;;;6.17;2.80;;;;;;;15.30;100.00;98911.94;5091583;28;20202;-77
2023/05/24 03:18:54;;;;;;;5.93;3.30;;;;;;;15.14;100.00;98907.41;5091394;28;20643;-75
2023/05/24 03:21:22;;;;;;;7.33;2.97;;;;;;;15.21;100.00;98911.97;5091988;28;20328;-77
2023/05/24 03:23:49;;;;;;;3.37;2.30;;;;;;;15.33;100.00;98905.66;5091097;28;20226;-77
2023/05/24 03:26:17;;;;;;;3.17;2.23;;;;;;;15.31;100.00;98910.97;5091391;28;20205;-77
2023/05/24 03:28:44;;;;;;;4.33;2.30;;;;;;;15.37;100.00;98912.16;5091351;28;20224;-77
2023/05/24 03:31:11;;;;;;;5.63;3.10;;;;;;;15.29;100.00;98912.06;5091415;28;20212;-77
2023/05/24 03:33:37;;;;;;;4.07;2.20;;;;;;;15.27;100.00;98907.06;5091182;28;20233;-77
2023/05/24 03:36:05;;;;;;;3.37;2.20;;;;;;;15.32;100.00;98904.03;5091228;28;20198;-71
2023/05/24 03:38:32;;;;;;;5.27;2.43;;;;;;;15.36;100.00;98905.38;5090990;28;20222;-77
2023/05/24 03:40:59;;;;;;;4.47;2.93;;;;;;;15.36;100.00;98913.13;5090899;28;20231;-70
2023/05/24 03:43:27;;;;;;;6.97;3.30;;;;;;;15.36;100.00;98918.28;5090952;28;20223;-77
2023/05/24 03:45:54;;;;;;;4.40;2.73;;;;;;;15.39;100.00;98915.41;5090974;28;20279;-70
2023/05/24 03:48:21;;;;;;;3.60;2.33;;;;;;;15.34;100.00;98915.81;5090846;28;20224;-71
2023/05/24 03:50:47;;;;;;;4.03;2.97;;;;;;;15.30;100.00;98916.25;5090933;28;20207;-70
2023/05/24 03:53:14;;;;;;;5.17;2.70;;;;;;;15.44;100.00;98918.31;5090518;28;20257;-71
2023/05/24 03:55:41;;;;;;;3.57;2.37;;;;;;;15.60;100.00;98923.66;5090889;28;20568;-71
2023/05/24 03:58:08;;;;;;;5.27;2.47;;;;;;;15.76;100.00;98927.34;5090649;28;20255;-71
2023/05/24 04:00:36;;;;;;;3.77;2.77;;;;;;;15.79;100.00;98921.91;5090723;28;20229;-71
2023/05/24 04:03:05;;;;;;;4.57;2.87;;;;;;;15.88;100.00;98925.34;5090536;28;20194;-77
2023/05/24 04:05:32;;;;;;;3.70;2.70;;;;;;;15.96;100.00;98923.66;5090788;28;20247;-78
2023/05/24 04:07:59;;;;;;;3.80;2.60;;;;;;;15.99;100.00;98928.50;5090794;28;20727;-78
2023/05/24 04:10:26;;;;;;;9.00;2.83;;;;;;;15.89;100.00;98932.97;5090599;28;20237;-71
2023/05/24 04:12:52;;;;;;;5.13;2.57;;;;;;;15.97;100.00;98935.63;5090394;28;20293;-78
2023/05/24 04:15:20;;;;;;;5.30;2.73;;;;;;;16.09;100.00;98937.97;5090668;28;20218;-77
2023/05/24 04:17:53;;;;;;;4.00;2.67;;;;;;;16.11;100.00;98938.59;5090348;28;20205;-70
2023/05/24 04:20:21;;;;;;;4.20;2.80;;;;;;;16.18;100.00;98940.44;5090203;28;20287;-70
2023/05/24 04:22:48;;;;;;;2.83;2.10;;;;;;;16.09;100.00;98937.97;5090226;28;20202;-70
2023/05/24 04:25:15;;;;;;;4.97;3.03;;;;;;;16.17;100.00;98940.56;5090560;28;20229;-70
2023/05/24 04:27:42;;;;;;;4.30;2.63;;;;;;;16.31;100.00;98947.78;5090311;28;20194;-78
2023/05/24 04:30:09;;;;;;;4.70;2.90;;;;;;;16.47;100.00;98942.72;5090331;28;20223;-71
2023/05/24 04:32:36;;;;;;;5.23;2.77;;;;;;;16.57;100.00;98941.81;5090366;28;20216;-77
2023/05/24 04:35:05;;;;;;;3.73;2.40;;;;;;;16.89;100.00;98943.78;5090310;28;20218;-71
2023/05/24 04:37:33;;;;;;;7.03;2.37;;;;;;;17.11;100.00;98939.84;5090535;28;20223;-77
2023/05/24 04:40:00;;;;;;;3.33;2.30;;;;;;;17.25;100.00;98941.84;5090502;28;20240;-77
2023/05/24 04:42:30;;;;;;;4.33;3.10;;;;;;;17.37;100.00;98948.31;5090206;28;20208;-78
2023/05/24 04:44:57;;;;;;;7.47;2.87;;;;;;;17.49;100.00;98953.19;5090488;28;20227;-70
2023/05/24 04:47:24;;;;;;;3.63;2.63;;;;;;;17.62;100.00;98953.53;5089908;28;20199;-73
2023/05/24 04:49:52;;;;;;;4.10;2.37;;;;;;;17.71;100.00;98949.97;5089840;28;20232;-71
2023/05/24 04:52:20;;;;;;;6.33;2.90;;;;;;;17.78;100.00;98953.59;5089676;28;20670;-70
2023/05/24 04:54:48;;;;;;;6.33;2.77;;;;;;;17.94;100.00;98963.13;5089974;28;20222;-70
2023/05/24 04:57:15;;;;;;;6.03;2.83;;;;;;;18.15;100.00;98960.09;5090202;28;20201;-76
2023/05/24 04:59:42;;;;;;;3.97;2.73;;;;;;;18.45;100.00;98965.56;5089940;28;20210;-70
2023/05/24 05:02:08;;;;;;;4.80;3.03;;;;;;;18.76;100.00;98965.66;5089820;28;20195;-71
2023/05/24 05:04:35;;;;;;;8.53;3.27;;;;;;;19.13;100.00;98957.25;5089951;28;20217;-77
2023/05/24 05:07:02;;;;;;;4.10;2.40;;;;;;;19.36;100.00;98964.28;5092741;28;20216;-70
2023/05/24 05:09:30;;;;;;;3.67;2.13;;;;;;;19.57;94.09;98967.06;5094135;28;20602;-77
2023/05/24 05:11:58;;;;;;;5.60;2.20;;;;;;;19.80;94.85;98968.91;5093907;28;20218;-70
2023/05/24 05:14:25;;;;;;;3.60;2.27;;;;;;;19.89;94.31;98971.28;5094221;28;20220;-77
2023/05/24 05:16:52;;;;;;;4.83;2.77;;;;;;;20.06;96.60;98966.78;5093709;28;20203;-71
2023/05/24 05:19:19;;;;;;;4.10;2.20;;;;;;;20.12;96.58;98976.44;5093885;28;20244;-70
2023/05/24 05:21:45;;;;;;;4.27;2.37;;;;;;;20.50;97.37;98973.84;5093601;28;20294;-72
2023/05/24 05:24:12;;;;;;;3.50;2.50;;;;;;;20.82;92.40;98966.72;5094044;28;20622;-71
2023/05/24 05:26:40;;;;;;;2.63;2.13;;;;;;;20.75;88.60;98976.22;5093825;28;20208;-71
2023/05/24 05:29:07;;;;;;;3.97;2.67;;;;;;;20.78;89.74;98975.88;5093675;28;20502;-77
2023/05/24 05:31:34;;;;;;;4.13;2.70;;;;;;;20.91;89.59;98981.22;5093711;28;20208;-72
2023/05/24 05:34:01;;;;;;;3.40;2.40;;;;;;;21.08;88.95;98979.25;5093779;28;20279;-77
2023/05/24 05:36:28;;;;;;;3.67;2.63;;;;;;;20.78;86.25;98981.06;5093599;28;20704;-71
2023/05/24 05:38:54;;;;;;;3.53;2.50;;;;;;;21.22;85.74;98983.63;5093575;28;20225;-77
2023/05/24 05:41:21;;;;;;;3.35;1.90;;;;;;;21.43;82.29;98985.50;5093276;28;20783;-71
2023/05/24 05:43:50;;;;;;;3.27;2.20;;;;;;;21.41;86.56;98992.69;5093414;28;20224;-78
2023/05/24 05:46:18;;;;;;;3.50;2.33;;;;;;;21.84;88.01;98986.72;5093293;28;20201;-77
2023/05/24 05:48:46;;;;;;;3.08;2.40;;;;;;;21.95;85.04;98995.84;5093079;28;20214;-76
2023/05/24 05:51:13;;;;;;;3.85;2.55;;;;;;;21.78;82.70;98990.88;5093413;28;20198;-70
2023/05/24 05:53:39;;;;;;;4.03;2.50;;;;;;;22.01;86.83;98993.28;5092796;28;20225;-70
2023/05/24 05:56:06;;;;;;;3.38;2.20;;;;;;;22.00;83.68;98993.47;5093420;28;20330;-70
2023/05/24 05:58:33;;;;;;;3.85;2.28;;;;;;;22.03;81.11;98993.09;5092789;28;20226;-71
2023/05/24 06:01:01;;;;;;;2.30;2.00;;;;;;;22.37;79.66;98998.44;5093097;28;20226;-76
2023/05/24 06:03:28;;;;;;;2.85;2.15;;;;;;;22.94;80.83;98993.16;5092807;28;20286;-71
2023/05/24 06:05:54;;;;;;;2.60;2.20;;;;;;;23.23;77.43;98999.94;5092953;28;20251;-76
2023/05/24 06:08:21;;;;;;;3.75;2.35;;;;;;;23.46;75.50;98997.03;5092647;28;20218;-76
2023/05/24 06:10:48;;;;;;;3.25;2.45;;;;;;;23.39;78.81;99001.44;5092843;28;20616;-76
2023/05/24 06:13:15;;;;;;;3.75;2.72;;;;;;;23.41;75.67;98999.41;5092588;28;20206;-77
2023/05/24 06:15:42;;;;;;;10.25;6.32;;;;;;;23.78;75.46;99005.16;5092864;28;20202;-76
2023/05/24 06:18:10;;;;;;;7.28;3.28;;;;;;;23.88;77.41;99010.78;5092421;28;20198;-71
2023/05/24 06:20:37;;;;;;;3.83;2.42;;;;;;;24.02;75.69;99012.41;5092622;28;20697;-76
2023/05/24 06:23:04;;;;;;;4.88;2.90;;;;;;;24.23;73.59;99018.44;5092582;28;20288;-71
2023/05/24 06:25:31;;;;;;;2.78;1.98;;;;;;;24.32;71.73;99015.47;5093130;28;20198;-76
2023/05/24 06:27:58;;;;;;;7.05;3.47;;;;;;;24.12;75.00;99012.84;5092384;28;20194;-75
2023/05/24 06:30:25;;;;;;;3.58;2.45;;;;;;;24.45;72.77;99017.28;5092969;28;20206;-71
2023/05/24 06:32:52;;;;;;;4.80;2.50;;;;;;;24.51;74.88;99026.94;5092214;28;20689;-76
2023/05/24 06:35:20;;;;;;;3.53;2.28;;;;;;;24.44;73.11;99031.38;5092598;28;20214;-70
2023/05/24 06:37:47;;;;;;;4.97;3.13;;;;;;;24.72;69.78;99027.69;5092142;28;20198;-71
2023/05/24 06:40:14;;;;;;;5.28;2.53;;;;;;;24.92;69.60;99028.47;5092369;28;20634;-76
2023/05/24 06:42:41;;;;;;;2.53;1.88;;;;;;;24.89;68.08;99036.72;5092253;28;20255;-76
2023/05/24 06:45:09;;;;;;;3.85;2.50;;;;;;;24.83;68.36;99038.34;5092597;28;20218;-76
2023/05/24 06:47:36;;;;;;;4.93;2.63;;;;;;;24.51;74.48;99037.38;5092032;28;20231;-73
2023/05/24 06:50:03;;;;;;;2.65;2.00;;;;;;;24.83;73.32;99034.94;5092391;28;20214;-74
2023/05/24 06:52:32;;;;;;;2.72;1.90;;;;;;;25.10;72.37;99033.03;5092172;28;20202;-75
2023/05/24 06:54:58;;;;;;;3.78;2.40;;;;;;;24.20;71.41;99029.31;5092125;28;20225;-71
2023/05/24 06:57:25;;;;;;;3.28;1.88;;;;;;;25.10;75.78;99037.47;5092046;28;20190;-71
2023/05/24 06:59:52;;;;;;;3.45;2.42;;;;;;;24.65;68.33;99034.75;5091896;28;20217;-71
2023/05/24 07:02:22;;;;;;;2.97;2.25;;;;;;;24.82;68.18;99038.56;5091609;28;20237;-75
2023/05/24 07:04:49;;;;;;;3.47;2.47;;;;;;;25.24;69.37;99037.25;5091685;28;20597;-76
2023/05/24 07:07:16;;;;;;;2.75;2.03;;;;;;;25.42;67.37;99038.38;5091736;28;20198;-71
2023/05/24 07:09:44;;;;;;;2.92;2.10;;;;;;;25.78;69.58;99034.41;5091477;28;20288;-74
2023/05/24 07:12:11;;;;;;;3.05;2.15;;;;;;;25.96;65.27;99032.69;5091811;28;20594;-72
2023/05/24 07:14:38;;;;;;;3.17;2.33;;;;;;;26.21;69.20;99039.78;5091631;28;20282;-76
2023/05/24 07:17:05;;;;;;;3.63;2.63;;;;;;;25.53;65.65;99045.59;5091802;28;20291;-76
2023/05/24 07:19:33;;;;;;;2.85;2.08;;;;;;;24.83;71.00;99040.16;5091788;28;20693;-71
2023/05/24 07:22:00;;;;;;;5.55;2.67;;;;;;;25.46;68.50;99034.34;5091251;28;20275;-70
2023/05/24 07:24:27;;;;;;;3.25;2.20;;;;;;;26.07;66.87;99027.78;5091451;28;20541;-76
2023/05/24 07:26:56;;;;;;;4.28;2.65;;;;;;;26.48;64.21;99031.69;5091306;28;20402;-76
2023/05/24 07:29:23;;;;;;;3.80;2.58;;;;;;;26.01;66.02;99036.50;5090797;28;20219;-71
2023/05/24 07:31:50;;;;;;;3.55;2.40;;;;;;;26.46;67.59;99038.97;5091088;28;20225;-76
2023/05/24 07:34:21;;;;;;;4.25;1.92;;;;;;;27.06;63.65;99026.88;5091233;28;20775;-76
2023/05/24 07:36:48;;;;;;;4.97;2.40;;;;;;;26.89;62.13;99044.22;5091178;28;20287;-76
2023/05/24 07:39:15;;;;;;;3.42;2.55;;;;;;;25.88;65.55;99038.16;5091071;28;20222;-76
2023/05/24 07:41:42;;;;;;;3.10;2.53;;;;;;;24.67;67.95;99035.34;5090964;28;20229;-70
2023/05/24 07:44:11;;;;;;;2.78;2.13;;;;;;;25.06;72.48;99035.25;5090973;28;20213;-70
2023/05/24 07:46:38;;;;;;;3.25;2.35;;;;;;;25.43;68.45;99042.63;5091451;28;20200;-71
2023/05/24 07:49:05;;;;;;;6.78;2.58;;;;;;;26.48;63.15;99047.44;5090939;28;20222;-75
2023/05/24 07:51:32;;;;;;;5.60;2.38;;;;;;;26.82;62.34;99044.31;5090785;28;20735;-70
2023/05/24 07:53:59;;;;;;;2.92;2.33;;;;;;;26.97;61.68;99051.81;5091169;28;20704;-75
2023/05/24 07:56:26;;;;;;;2.95;2.22;;;;;;;26.67;63.87;99049.06;5090952;28;20289;-75
2023/05/24 07:58:58;;;;;;;3.22;2.13;;;;;;;27.00;63.08;99050.59;5090782;28;20217;-75
2023/05/24 08:01:27;;;;;;;3.13;2.05;;;;;;;27.14;61.00;99056.47;5090592;28;20217;-75
2023/05/24 08:03:55;;;;;;;3.33;2.33;;;;;;;27.51;61.07;99052.00;5090523;28;20226;-75
2023/05/24 08:06:22;;;;;;;2.80;2.28;;;;;;;27.58;58.84;99049.28;5090736;28;20216;-70
2023/05/24 08:08:50;;;;;;;3.42;2.35;;;;;;;27.71;57.96;99052.56;5090320;28;20222;-75
2023/05/24 08:11:16;;;;;;;3.95;2.42;;;;;;;28.21;57.89;99047.00;5090634;28;20326;-70
2023/05/24 08:13:44;;;;;;;3.22;2.33;;;;;;;28.21;56.94;99052.25;5090332;28;20221;-74
2023/05/24 08:16:10;;;;;;;3.55;2.33;;;;;;;27.43;59.06;99052.31;5090651;28;20198;-70
2023/05/24 08:18:38;;;;;;;3.22;2.60;;;;;;;28.06;55.36;99051.88;5090318;28;20210;-74
2023/05/24 08:21:05;;;;;;;2.75;2.22;;;;;;;28.02;53.61;99056.00;5090542;28;20226;-74
2023/05/24 08:23:32;;;;;;;3.58;2.30;;;;;;;28.35;54.65;99046.78;5090159;28;20222;-74
2023/05/24 08:25:59;;;;;;;5.25;2.33;;;;;;;28.51;56.15;99055.84;5090534;28;20208;-74
2023/05/24 08:28:26;;;;;;;3.90;2.28;;;;;;;29.07;54.40;99059.75;5090310;28;20681;-74
2023/05/24 08:30:53;;;;;;;4.97;2.70;;;;;;;29.22;51.88;99059.25;5090417;28;20587;-70
2023/05/24 08:33:21;;;;;;;5.57;2.47;;;;;;;28.94;52.08;99059.94;5089794;28;20480;-70
2023/05/24 08:35:50;;;;;;;3.42;2.67;;;;;;;28.55;54.05;99063.06;5090173;28;20202;-71
2023/05/24 08:38:17;;;;;;;3.85;2.72;;;;;;;27.61;56.18;99062.81;5089943;28;20675;-74
2023/05/24 08:40:44;;;;;;;14.95;5.13;;;;;;;27.80;55.44;99065.41;5089971;28;20209;-70
2023/05/24 08:43:12;;;;;;;4.50;2.83;;;;;;;27.65;54.62;99069.22;5089945;28;20201;-74
2023/05/24 08:45:39;;;;;;;2.83;2.53;;;;;;;27.15;54.65;99063.34;5090432;28;20202;-70
2023/05/24 08:48:06;;;;;;;3.83;2.92;;;;;;;26.42;58.28;99057.75;5089892;28;20233;-74
2023/05/24 08:50:34;;;;;;;4.43;2.40;;;;;;;26.12;59.11;99069.84;5089901;28;20194;-70
2023/05/24 08:53:04;;;;;;;23.67;5.65;;;;;;;25.83;59.03;99064.22;5089806;28;20197;-71
2023/05/24 08:55:31;;;;;;;7.97;3.28;;;;;;;26.05;60.82;99063.88;5090087;28;20206;-75
2023/05/24 08:57:59;;;;;;;4.32;2.67;;;;;;;26.37;57.85;99065.44;5089782;28;20201;-75
2023/05/24 09:00:26;;;;;;;3.67;2.58;;;;;;;26.64;56.61;99067.88;5090023;28;20551;-75
2023/05/24 09:02:54;;;;;;;4.10;2.58;;;;;;;26.54;60.18;99057.09;5089558;28;20241;-71
2023/05/24 09:05:21;;;;;;;4.03;2.70;;;;;;;26.82;57.92;99060.03;5089899;28;20233;-75
2023/05/24 09:07:49;;;;;;;4.63;2.97;;;;;;;27.29;56.64;99054.31;5089894;28;20411;-71
2023/05/24 09:10:21;;;;;;;3.60;2.60;;;;;;;27.60;54.74;99060.38;5089717;28;20296;-71
2023/05/24 09:12:54;;;;;;;3.10;2.55;;;;;;;27.07;54.86;99069.66;5089984;28;20218;-73
2023/05/24 09:15:21;;;;;;;3.53;2.30;;;;;;;26.49;60.58;99062.13;5089971;28;20218;-71
2023/05/24 09:17:48;;;;;;;4.65;2.58;;;;;;;27.72;58.65;99059.44;5089459;28;20247;-75
2023/05/24 09:20:15;;;;;;;3.30;2.45;;;;;;;27.67;57.58;99061.91;5088823;28;20217;-75
2023/05/24 09:22:43;;;;;;;6.85;2.53;;;;;;;28.47;57.63;99059.97;5089016;28;20230;-72
2023/05/24 09:25:12;;;;;;;3.65;2.50;;;;;;;28.17;55.87;99066.09;5089271;28;20229;-75
2023/05/24 09:27:41;;;;;;;4.07;2.72;;;;;;;28.09;55.11;99069.03;5089534;28;20205;-75
2023/05/24 09:30:11;;;;;;;3.38;2.60;;;;;;;28.13;56.04;99060.50;5089574;28;20233;-75
2023/05/24 09:32:38;;;;;;;3.55;2.90;;;;;;;28.15;53.42;99063.66;5089636;28;20202;-75
2023/05/24 09:35:09;;;;;;;4.75;2.67;;;;;;;28.29;55.08;99055.59;5089366;28;20259;-70
2023/05/24 09:37:37;;;;;;;2.78;2.35;;;;;;;28.48;51.34;99057.13;5089202;28;20198;-70
2023/05/24 09:40:05;;;;;;;3.55;2.35;;;;;;;28.77;52.30;99065.94;5089265;28;20280;-75
2023/05/24 09:42:32;;;;;;;2.38;2.10;;;;;;;28.90;48.34;99062.25;5089305;28;20234;-75
2023/05/24 09:45:01;;;;;;;4.85;2.95;;;;;;;29.05;50.38;99062.59;5089301;28;20283;-71
2023/05/24 09:47:29;;;;;;;3.22;2.35;;;;;;;29.21;50.51;99068.19;5089277;28;20233;-75
2023/05/24 09:49:56;;;;;;;3.70;2.38;;;;;;;29.33;48.64;99064.47;5089521;28;20226;-71
2023/05/24 09:52:22;;;;;;;3.60;2.42;;;;;;;29.36;49.76;99068.50;5090888;28;20202;-76
2023/05/24 09:54:49;;;;;;;5.00;2.67;;;;;;;28.56;52.82;99064.66;5093014;28;20658;-75
2023/05/24 09:57:16;;;;;;;4.32;2.50;;;;;;;29.30;47.92;99058.91;5092863;28;20233;-76
2023/05/24 09:59:44;;;;;;;21.00;12.82;;;;;;;28.92;50.27;99059.41;5093051;28;20226;-70
2023/05/24 10:02:12;;;;;;;21.42;7.90;;;;;;;28.75;47.22;99056.66;5092969;28;20230;-75
2023/05/24 10:04:39;;;;;;;3.90;2.53;;;;;;;28.83;49.07;99053.69;5093169;28;20226;-75
2023/05/24 10:07:06;;;;;;;3.20;2.60;;;;;;;29.17;50.03;99053.88;5092885;28;20202;-70
2023/05/24 10:09:34;;;;;;;2.97;2.30;;;;;;;29.12;49.72;99057.22;5092900;28;20664;-69
2023/05/24 10:12:05;;;;;;;3.42;2.33;;;;;;;29.34;48.85;99054.75;5092935;28;20206;-75
2023/05/24 10:14:34;;;;;;;5.85;3.13;;;;;;;29.30;49.18;99058.91;5092906;28;20228;-74
2023/05/24 10:17:02;;;;;;;3.78;2.30;;;;;;;29.30;45.23;99053.63;5092637;28;20201;-74
2023/05/24 10:19:30;;;;;;;3.25;2.38;;;;;;;29.16;46.91;99052.28;5092291;28;20221;-70
2023/05/24 10:21:59;;;;;;;5.13;2.38;;;;;;;28.94;46.11;99050.22;5092487;28;20222;-74
2023/05/24 10:24:32;;;;;;;15.02;3.22;;;;;;;28.92;47.87;99052.31;5092466;28;20640;-70
2023/05/24 10:27:01;;;;;;;3.00;2.20;;;;;;;29.37;44.88;99054.28;5092678;28;20248;-70
2023/05/24 10:29:44;;;;;;;2.10;1.90;;;;;;;29.49;45.10;99057.66;5092578;28;20257;-75
2023/05/24 10:32:11;;;;;;;3.40;2.38;;;;;;;29.60;47.24;99047.31;5092422;28;20228;-70
2023/05/24 10:34:41;;;;;;;2.72;2.17;;;;;;;29.41;46.53;99044.06;5092391;28;20245;-76
2023/05/24 10:37:08;;;;;;;2.78;2.20;;;;;;;29.26;47.57;99047.22;5092237;28;20229;-77
2023/05/24 10:39:36;;;;;;;2.97;2.30;;;;;;;29.32;47.53;99049.72;5092130;28;20612;-78
2023/05/24 10:42:03;;;;;;;3.17;2.30;;;;;;;29.54;47.21;99044.59;5092390;28;20899;-78
2023/05/24 10:44:30;;;;;;;4.43;2.20;;;;;;;29.68;48.69;99034.59;5092103;28;21378;-76
2023/05/24 10:47:08;;;;;;;4.60;2.38;;;;;;;29.96;43.83;99036.41;5091995;28;20248;-78
2023/05/24 10:49:36;;;;;;;4.10;3.17;;;;;;;30.06;43.38;99030.50;5092097;28;20317;-78
2023/05/24 10:52:08;;;;;;;2.58;2.20;;;;;;;29.51;44.26;99034.53;5091770;28;20202;-77
2023/05/24 10:54:35;;;;;;;3.05;2.28;;;;;;;29.55;42.52;99030.41;5091721;28;20301;-78
2023/05/24 10:57:04;;;;;;;3.15;2.13;;;;;;;29.46;43.19;99029.16;5091990;28;20206;-78
2023/05/24 10:59:37;;;;;;;3.35;2.67;;;;;;;29.45;44.13;99032.03;5091595;28;20218;-77
2023/05/24 11:02:08;;;;;;;3.47;2.22;;;;;;;29.55;44.43;99027.78;5091609;28;20326;-78
2023/05/24 11:04:38;;;;;;;2.97;2.20;;;;;;;29.53;44.68;99016.66;5090271;28;20651;-77
2023/05/24 11:07:09;;;;;;;3.83;2.50;;;;;;;29.59;43.67;99014.13;5091658;28;20202;-78
2023/05/24 11:09:36;;;;;;;3.28;2.25;;;;;;;29.66;42.09;99014.78;5091861;28;20221;-79
2023/05/24 11:12:07;;;;;;;2.92;2.33;;;;;;;29.66;43.19;99020.06;5091229;28;20665;-77
2023/05/24 11:14:36;;;;;;;3.80;2.45;;;;;;;29.73;44.05;99015.44;5091226;28;20305;-77
2023/05/24 11:17:04;;;;;;;5.15;2.33;;;;;;;29.67;41.51;99021.66;5090979;28;20251;-78
2023/05/24 11:19:34;;;;;;;3.15;2.30;;;;;;;29.25;42.10;99019.28;5091264;28;20214;-77
2023/05/24 11:22:02;;;;;;;2.80;2.13;;;;;;;28.70;43.13;99014.44;5091245;28;20328;-78
2023/05/24 11:24:31;;;;;;;2.92;2.40;;;;;;;28.29;43.45;99006.44;5091249;28;20218;-78
2023/05/24 11:26:59;;;;;;;3.03;2.15;;;;;;;28.36;44.82;99008.94;5091343;28;20289;-77
2023/05/24 11:29:26;;;;;;;2.58;2.22;;;;;;;28.83;42.94;99006.31;5091426;28;20213;-78
2023/05/24 11:31:56;;;;;;;3.47;2.13;;;;;;;28.26;43.16;99001.63;5091117;28;20198;-79
2023/05/24 11:34:25;;;;;;;3.42;2.53;;;;;;;28.55;45.25;98996.50;5090894;28;20217;-81